Time;durP1;ratioP1;P1;durP2;ratioP2;P2;SDS_P1;SDS_P2;PMS_P1;PMS_P2;Temp;Humidity;BMP_temperature;BMP_pressure;BME280_temperature;BME280_humidity;BME280_pressure;Samples;Min_cycle;Max_cycle;Signal;HPM_P1;HPM_P2
2023/05/23 00:01:39;;;;;;;2.65;2.17;;;9.60;93.00;;;;;;5002645;28;20169;-64
2023/05/23 00:04:07;;;;;;;3.88;2.58;;;9.60;93.10;;;;;;5004633;28;20700;-64
2023/05/23 00:06:34;;;;;;;3.13;1.88;;;9.60;92.90;;;;;;5005560;28;20931;-65
2023/05/23 00:09:02;;;;;;;2.88;2.00;;;9.60;93.10;;;;;;4987321;28;20050;-67
2023/05/23 00:11:29;;;;;;;4.32;2.20;;;9.60;92.90;;;;;;5000780;28;20403;-65
2023/05/23 00:13:59;;;;;;;4.55;2.63;;;9.60;93.00;;;;;;5003020;28;20057;-66
2023/05/23 00:16:27;;;;;;;2.08;1.83;;;9.60;92.90;;;;;;5004838;28;20663;-66
2023/05/23 00:18:56;;;;;;;2.60;1.83;;;9.60;92.90;;;;;;4986235;28;20046;-71
2023/05/23 00:21:23;;;;;;;3.47;1.90;;;9.60;92.90;;;;;;5004085;28;20054;-65
2023/05/23 00:23:50;;;;;;;3.28;2.25;;;9.60;93.00;;;;;;5000550;28;20124;-66
2023/05/23 00:26:17;;;;;;;3.05;2.40;;;9.60;93.10;;;;;;5002761;28;20108;-67
2023/05/23 00:28:45;;;;;;;1.70;1.60;;;9.50;93.20;;;;;;4986191;28;20057;-63
2023/05/23 00:31:12;;;;;;;2.88;2.63;;;9.50;93.10;;;;;;5003600;28;20050;-68
2023/05/23 00:33:39;;;;;;;2.53;2.33;;;9.50;93.30;;;;;;5002715;28;20048;-65
2023/05/23 00:36:06;;;;;;;3.40;2.20;;;9.50;93.10;;;;;;5004689;28;20841;-62
2023/05/23 00:38:33;;;;;;;3.13;2.35;;;9.40;93.00;;;;;;5004997;28;20057;-69
2023/05/23 00:41:01;;;;;;;2.92;2.22;;;9.40;93.30;;;;;;4983608;28;20672;-65
2023/05/23 00:43:28;;;;;;;2.40;2.03;;;9.30;93.00;;;;;;4987133;28;20143;-64
2023/05/23 00:45:55;;;;;;;3.83;1.98;;;9.30;93.30;;;;;;5001778;28;20058;-73
2023/05/23 00:48:25;;;;;;;2.95;1.60;;;9.30;93.00;;;;;;5003944;28;20123;-63
2023/05/23 00:50:54;;;;;;;3.03;1.83;;;9.30;93.10;;;;;;5000435;28;20392;-66
2023/05/23 00:53:21;;;;;;;2.92;1.80;;;9.30;93.10;;;;;;5002294;28;20131;-68
2023/05/23 00:55:48;;;;;;;2.70;1.80;;;9.20;93.10;;;;;;4982866;28;20053;-68
2023/05/23 00:58:16;;;;;;;2.42;2.22;;;9.20;93.00;;;;;;5003800;28;20142;-68
2023/05/23 01:00:48;;;;;;;4.40;2.75;;;9.20;93.00;;;;;;4977563;28;20098;-68
2023/05/23 01:03:17;;;;;;;2.13;1.88;;;9.20;92.70;;;;;;4999380;28;20092;-63
2023/05/23 01:05:44;;;;;;;2.20;1.83;;;9.20;92.70;;;;;;5000014;28;20133;-64
2023/05/23 01:08:11;;;;;;;2.17;1.98;;;9.20;92.70;;;;;;4999905;28;20065;-65
2023/05/23 01:10:38;;;;;;;6.78;2.58;;;9.20;92.70;;;;;;5001041;28;20060;-67
2023/05/23 01:13:33;;;;;;;2.55;2.10;;;9.20;92.70;;;;;;5002078;28;20054;-64
2023/05/23 01:16:25;;;;;;;2.25;2.03;;;9.20;92.60;;;;;;5003794;28;20049;-71
2023/05/23 01:19:14;;;;;;;2.80;1.83;;;9.20;92.70;;;;;;5001628;28;20084;-66
2023/05/23 01:21:43;;;;;;;5.95;3.38;;;9.10;92.80;;;;;;4997068;28;20062;-67
2023/05/23 01:24:38;;;;;;;2.95;2.17;;;9.10;92.60;;;;;;5002523;28;20088;-71
2023/05/23 01:27:19;;;;;;;2.78;2.13;;;9.00;92.70;;;;;;4995201;28;20077;-64
2023/05/23 01:29:47;;;;;;;2.25;1.83;;;9.00;92.90;;;;;;4999510;28;20057;-68
2023/05/23 01:32:15;;;;;;;2.05;1.65;;;9.00;92.60;;;;;;4998580;28;20446;-74
2023/05/23 01:34:43;;;;;;;2.40;1.80;;;9.00;92.50;;;;;;5004195;28;20464;-62
2023/05/23 01:37:13;;;;;;;7.30;2.17;;;8.90;92.60;;;;;;5001328;28;20081;-66
2023/05/23 01:39:41;;;;;;;3.35;3.05;;;8.90;92.80;;;;;;5001799;28;20141;-66
2023/05/23 01:42:08;;;;;;;3.65;1.95;;;8.90;92.70;;;;;;5003778;28;20061;-66
2023/05/23 01:44:37;;;;;;;3.63;2.72;;;8.90;93.10;;;;;;4996936;28;20057;-69
2023/05/23 01:47:07;;;;;;;2.67;2.20;;;8.90;92.90;;;;;;4999077;28;20057;-63
2023/05/23 01:49:35;;;;;;;3.03;2.33;;;8.90;92.90;;;;;;4982383;28;20049;-63
2023/05/23 01:52:03;;;;;;;3.80;1.83;;;8.80;93.30;;;;;;4984838;28;20057;-66
2023/05/23 01:54:34;;;;;;;2.70;2.22;;;8.80;93.40;;;;;;5001821;28;20380;-71
2023/05/23 01:57:01;;;;;;;2.90;2.00;;;8.80;93.40;;;;;;5002532;28;20066;-68
2023/05/23 01:59:28;;;;;;;4.20;2.10;;;8.80;93.40;;;;;;4983463;28;20144;-74
2023/05/23 02:01:56;;;;;;;3.58;2.13;;;8.70;93.50;;;;;;4999432;28;20058;-69
2023/05/23 02:04:23;;;;;;;1.98;1.77;;;8.70;93.30;;;;;;5003138;28;20064;-65
2023/05/23 02:06:50;;;;;;;1.98;1.77;;;8.70;93.50;;;;;;4986135;28;20500;-76
2023/05/23 02:09:17;;;;;;;3.65;2.08;;;8.70;93.50;;;;;;5002829;28;20050;-65
2023/05/23 02:11:44;;;;;;;5.70;2.17;;;8.70;93.70;;;;;;4999883;28;20050;-62
2023/05/23 02:14:11;;;;;;;2.30;1.75;;;8.60;93.70;;;;;;4984666;28;20080;-70
2023/05/23 02:16:38;;;;;;;5.00;2.38;;;8.60;93.70;;;;;;4979736;28;20057;-71
2023/05/23 02:19:05;;;;;;;3.33;1.92;;;8.60;93.80;;;;;;4985474;28;20443;-62
2023/05/23 02:21:32;;;;;;;2.10;1.90;;;8.60;93.60;;;;;;5002401;28;20545;-68
2023/05/23 02:24:02;;;;;;;1.98;1.77;;;8.50;93.90;;;;;;5000957;28;20058;-65
2023/05/23 02:26:29;;;;;;;2.22;2.03;;;8.50;94.00;;;;;;5005826;28;20668;-68
2023/05/23 02:28:56;;;;;;;2.30;2.03;;;8.50;94.10;;;;;;4988496;28;20506;-74
2023/05/23 02:31:23;;;;;;;5.40;2.30;;;8.50;93.90;;;;;;4989400;28;20061;-69
2023/05/23 02:33:50;;;;;;;3.75;1.95;;;8.50;94.30;;;;;;4986287;28;20388;-65
2023/05/23 02:36:17;;;;;;;2.20;1.85;;;8.50;94.40;;;;;;4986841;28;20154;-71
2023/05/23 02:38:44;;;;;;;3.92;1.98;;;8.50;94.40;;;;;;5005652;28;20092;-63
2023/05/23 02:41:11;;;;;;;2.50;2.10;;;8.50;94.70;;;;;;4987483;28;20077;-64
2023/05/23 02:43:38;;;;;;;3.00;2.65;;;8.50;95.00;;;;;;5006055;28;20042;-66
2023/05/23 02:46:05;;;;;;;2.83;2.50;;;8.50;94.80;;;;;;4986935;28;20073;-59
2023/05/23 02:48:32;;;;;;;5.82;3.28;;;8.50;95.30;;;;;;5006580;28;20121;-65
2023/05/23 02:50:59;;;;;;;5.68;3.03;;;8.50;95.00;;;;;;5004859;28;20053;-76
2023/05/23 02:53:26;;;;;;;3.20;2.50;;;8.50;94.80;;;;;;4988938;28;20049;-62
2023/05/23 02:55:53;;;;;;;3.72;2.97;;;8.50;95.50;;;;;;4983763;28;20137;-68
2023/05/23 02:58:20;;;;;;;11.73;2.33;;;8.50;95.10;;;;;;4990051;28;20050;-72
2023/05/23 03:00:47;;;;;;;3.35;3.03;;;8.50;95.10;;;;;;5001580;28;20539;-67
2023/05/23 03:03:15;;;;;;;4.35;3.15;;;8.60;95.00;;;;;;5005387;28;20133;-63
2023/05/23 03:05:43;;;;;;;5.18;3.53;;;8.50;95.20;;;;;;5005092;28;20054;-72
2023/05/23 03:08:10;;;;;;;3.72;2.22;;;8.50;95.40;;;;;;5005794;28;20048;-64
2023/05/23 03:10:36;;;;;;;4.13;2.38;;;8.50;95.60;;;;;;5004788;28;20060;-61
2023/05/23 03:13:04;;;;;;;3.80;2.72;;;8.60;95.60;;;;;;5005549;28;20049;-64
2023/05/23 03:15:31;;;;;;;3.95;2.42;;;8.60;95.80;;;;;;4987564;28;20346;-61
2023/05/23 03:17:58;;;;;;;2.78;2.38;;;8.60;95.80;;;;;;4986187;28;20772;-63
2023/05/23 03:20:25;;;;;;;4.55;2.25;;;8.60;95.80;;;;;;4983880;28;20079;-74
2023/05/23 03:22:53;;;;;;;5.35;2.20;;;8.60;95.60;;;;;;5004370;28;20622;-66
2023/05/23 03:25:22;;;;;;;2.25;1.85;;;8.70;95.80;;;;;;4987682;28;20054;-62
2023/05/23 03:27:49;;;;;;;4.10;2.25;;;8.70;95.80;;;;;;5003136;28;20089;-73
2023/05/23 03:30:16;;;;;;;4.80;3.50;;;8.70;95.90;;;;;;5003859;28;20053;-70
2023/05/23 03:32:43;;;;;;;4.53;2.00;;;8.80;95.80;;;;;;4988489;28;20089;-60
2023/05/23 03:35:10;;;;;;;1.88;1.52;;;8.90;95.70;;;;;;4987822;28;20049;-73
2023/05/23 03:37:38;;;;;;;4.45;2.47;;;8.90;95.40;;;;;;4984979;28;20396;-68
2023/05/23 03:40:06;;;;;;;2.53;2.10;;;8.90;95.50;;;;;;5005648;28;20061;-66
2023/05/23 03:42:33;;;;;;;7.35;2.65;;;9.00;95.40;;;;;;4988461;28;20484;-67
2023/05/23 03:45:00;;;;;;;2.13;1.92;;;9.10;95.60;;;;;;5005446;28;20076;-68
2023/05/23 03:47:27;;;;;;;2.03;1.80;;;9.20;95.50;;;;;;4986528;28;20060;-73
2023/05/23 03:49:57;;;;;;;3.92;2.88;;;9.30;95.50;;;;;;5001851;28;20522;-67
2023/05/23 03:52:24;;;;;;;3.38;2.15;;;9.30;95.60;;;;;;4984780;28;20060;-62
2023/05/23 03:54:51;;;;;;;4.07;2.53;;;9.40;95.10;;;;;;4986225;28;20050;-71
2023/05/23 03:57:18;;;;;;;6.35;2.40;;;9.40;95.30;;;;;;4986212;28;20060;-72
2023/05/23 03:59:46;;;;;;;2.92;1.98;;;9.50;95.40;;;;;;4986754;28;20053;-65
2023/05/23 04:02:13;;;;;;;3.42;1.67;;;9.50;95.40;;;;;;4983724;28;20046;-63
2023/05/23 04:04:40;;;;;;;2.10;1.55;;;9.60;95.60;;;;;;4986112;28;20058;-71
2023/05/23 04:07:08;;;;;;;3.22;2.13;;;9.70;95.70;;;;;;4983802;28;20539;-62
2023/05/23 04:09:37;;;;;;;2.40;2.00;;;9.70;95.70;;;;;;4979349;28;20114;-62
2023/05/23 04:12:08;;;;;;;2.58;2.38;;;9.90;95.60;;;;;;4979903;28;20090;-62
2023/05/23 04:14:36;;;;;;;3.05;2.15;;;10.00;94.70;;;;;;4987380;28;20056;-71
2023/05/23 04:17:04;;;;;;;2.83;2.47;;;10.30;94.50;;;;;;4986212;28;20050;-62
2023/05/23 04:19:32;;;;;;;4.00;2.78;;;10.50;94.10;;;;;;4981740;28;20051;-65
2023/05/23 04:21:59;;;;;;;4.40;2.47;;;10.50;93.60;;;;;;4983033;28;20070;-62
2023/05/23 04:24:26;;;;;;;6.68;2.53;;;10.70;94.20;;;;;;5000294;28;20145;-64
2023/05/23 04:26:55;;;;;;;2.08;1.67;;;10.80;93.60;;;;;;4983644;28;20058;-67
2023/05/23 04:29:25;;;;;;;5.97;3.13;;;10.80;93.90;;;;;;5001160;28;20495;-71
2023/05/23 04:31:53;;;;;;;1.80;1.70;;;10.90;94.50;;;;;;4990290;28;20463;-68
2023/05/23 04:34:21;;;;;;;9.90;2.50;;;10.90;94.00;;;;;;4984638;28;20055;-74
2023/05/23 04:36:48;;;;;;;4.93;2.97;;;10.90;94.40;;;;;;4985895;28;20070;-61
2023/05/23 04:39:15;;;;;;;6.45;1.98;;;10.90;94.50;;;;;;4989956;28;20086;-69
2023/05/23 04:41:58;;;;;;;10.48;3.33;;;11.00;94.30;;;;;;4982943;28;20073;-67
2023/05/23 04:44:43;;;;;;;9.43;2.45;;;11.10;95.20;;;;;;4982535;28;20108;-71
2023/05/23 04:47:19;;;;;;;6.13;2.45;;;11.10;95.30;;;;;;4980322;28;20062;-63
2023/05/23 04:50:01;;;;;;;12.30;3.30;;;11.20;95.40;;;;;;4976147;28;20054;-66
2023/05/23 04:52:32;;;;;;;4.03;1.90;;;11.20;95.40;;;;;;4978432;28;20129;-62
2023/05/23 04:55:00;;;;;;;5.93;2.20;;;11.30;95.40;;;;;;4975836;28;20062;-68
2023/05/23 04:57:27;;;;;;;6.20;2.08;;;11.40;95.80;;;;;;4997171;28;20055;-67
2023/05/23 04:59:55;;;;;;;1.95;1.67;;;11.50;95.40;;;;;;4980808;28;20050;-63
2023/05/23 05:02:22;;;;;;;2.13;1.80;;;11.60;95.50;;;;;;4968370;28;20088;-66
2023/05/23 05:04:50;;;;;;;6.13;2.72;;;11.70;94.70;;;;;;5001595;28;20042;-64
2023/05/23 05:07:17;;;;;;;5.45;2.15;;;11.80;94.70;;;;;;5006605;28;20585;-73
2023/05/23 05:09:44;;;;;;;9.18;2.78;;;11.90;94.50;;;;;;4998581;28;20123;-75
2023/05/23 05:12:11;;;;;;;8.73;2.50;;;12.00;94.70;;;;;;4997382;28;20061;-72
2023/05/23 05:14:39;;;;;;;6.18;2.28;;;12.20;94.40;;;;;;4980721;28;20500;-76
2023/05/23 05:17:06;;;;;;;4.80;1.70;;;12.20;94.60;;;;;;4984598;28;20133;-63
2023/05/23 05:19:54;;;;;;;7.57;2.67;;;12.40;94.80;;;;;;4996240;28;20415;-72
2023/05/23 05:22:22;;;;;;;4.05;3.30;;;12.50;94.30;;;;;;4983105;28;20792;-67
2023/05/23 05:24:48;;;;;;;4.20;2.05;;;12.60;94.10;;;;;;5001102;28;20045;-72
2023/05/23 05:27:16;;;;;;;6.13;2.13;;;12.80;93.70;;;;;;4984571;28;20053;-66
2023/05/23 05:29:43;;;;;;;13.30;3.22;;;12.80;93.20;;;;;;4981737;28;20135;-73
2023/05/23 05:32:10;;;;;;;7.63;2.97;;;13.00;93.90;;;;;;4979045;28;20614;-62
2023/05/23 05:34:37;;;;;;;4.38;2.17;;;13.10;93.30;;;;;;4982537;28;20074;-68
2023/05/23 05:37:05;;;;;;;8.93;4.05;;;13.40;94.00;;;;;;4984581;28;20839;-65
2023/05/23 05:39:32;;;;;;;8.55;2.45;;;13.40;93.90;;;;;;4982412;28;20081;-64
2023/05/23 05:42:02;;;;;;;6.28;2.55;;;13.50;94.20;;;;;;4982252;28;20050;-63
2023/05/23 05:44:29;;;;;;;4.93;2.53;;;13.60;93.40;;;;;;4984293;28;20088;-77
2023/05/23 05:46:56;;;;;;;7.82;2.78;;;13.50;93.10;;;;;;4985281;28;20054;-69
2023/05/23 05:49:24;;;;;;;2.22;1.70;;;13.30;94.30;;;;;;4985287;28;20073;-63
2023/05/23 05:51:51;;;;;;;8.38;2.30;;;13.30;93.80;;;;;;4984478;28;20057;-71
2023/05/23 05:54:18;;;;;;;3.80;2.30;;;13.30;92.30;;;;;;5001625;28;20085;-61
2023/05/23 05:56:46;;;;;;;3.33;2.30;;;13.20;92.80;;;;;;4983791;28;20038;-61
2023/05/23 05:59:14;;;;;;;8.35;2.55;;;13.20;93.00;;;;;;4983092;28;20053;-66
2023/05/23 06:01:41;;;;;;;8.40;2.35;;;13.30;93.10;;;;;;4979156;28;20133;-62
2023/05/23 06:04:08;;;;;;;2.38;1.83;;;13.40;92.80;;;;;;4980368;28;20054;-71
2023/05/23 06:06:35;;;;;;;3.55;1.85;;;13.50;93.00;;;;;;4983009;28;20152;-69
2023/05/23 06:09:02;;;;;;;6.68;2.03;;;13.60;92.40;;;;;;4982676;28;20740;-64
2023/05/23 06:11:29;;;;;;;2.30;1.85;;;13.60;92.20;;;;;;4979839;28;20507;-63
2023/05/23 06:13:56;;;;;;;5.00;2.55;;;13.80;93.10;;;;;;4972911;28;20050;-75
2023/05/23 06:16:23;;;;;;;4.07;1.92;;;13.80;93.00;;;;;;4979723;28;20078;-66
2023/05/23 06:18:50;;;;;;;4.18;2.53;;;14.00;92.90;;;;;;4987869;28;20053;-63
2023/05/23 06:21:17;;;;;;;2.85;2.08;;;14.00;92.40;;;;;;4995677;28;20043;-65
2023/05/23 06:23:48;;;;;;;;;;;14.10;92.00;;;;;;4979891;28;20050;-62
2023/05/23 06:26:15;;;;;;;5.55;1.63;;;14.20;92.20;;;;;;4982551;28;20320;-67
2023/05/23 06:28:42;;;;;;;2.70;1.90;;;14.20;92.00;;;;;;4980336;28;20065;-72
2023/05/23 06:31:09;;;;;;;3.25;2.00;;;14.30;91.50;;;;;;4979264;28;20059;-61
2023/05/23 06:33:36;;;;;;;5.78;2.30;;;14.40;91.70;;;;;;4981072;28;20133;-68
2023/05/23 06:36:03;;;;;;;5.75;2.10;;;14.50;91.00;;;;;;4980670;28;20713;-68
2023/05/23 06:38:34;;;;;;;3.58;2.28;;;14.50;90.90;;;;;;4980324;28;20042;-64
2023/05/23 06:41:02;;;;;;;7.22;1.98;;;14.60;90.90;;;;;;4979148;28;20129;-72
2023/05/23 06:43:30;;;;;;;2.28;1.88;;;14.60;90.70;;;;;;4980565;28;20117;-64
2023/05/23 06:46:11;;;;;;;3.40;2.30;;;14.70;90.10;;;;;;4980007;28;20498;-71
2023/05/23 06:48:39;;;;;;;3.88;2.58;;;14.80;90.40;;;;;;4981172;28;20161;-67
2023/05/23 06:51:06;;;;;;;4.57;2.42;;;14.80;90.20;;;;;;4978747;28;20062;-62
2023/05/23 06:53:33;;;;;;;5.13;2.42;;;15.00;90.40;;;;;;4980860;28;20086;-63
2023/05/23 06:56:00;;;;;;;3.22;2.33;;;15.00;88.90;;;;;;4979284;28;20105;-67
2023/05/23 06:58:29;;;;;;;6.50;2.55;;;15.10;89.30;;;;;;4981742;28;20050;-64
2023/05/23 07:00:57;;;;;;;3.65;2.58;;;15.10;89.60;;;;;;4980952;28;20157;-61
2023/05/23 07:03:31;;;;;;;2.85;2.35;;;15.20;89.10;;;;;;4980849;28;20116;-71
2023/05/23 07:06:03;;;;;;;2.35;2.00;;;15.20;89.80;;;;;;4980267;28;20502;-63
2023/05/23 07:08:30;;;;;;;2.40;1.98;;;15.20;90.00;;;;;;4979885;28;20789;-66
2023/05/23 07:10:59;;;;;;;2.60;2.20;;;15.30;89.20;;;;;;4976034;28;20059;-68
2023/05/23 07:13:38;;;;;;;2.67;1.80;;;15.30;87.50;;;;;;4982636;28;20064;-63
2023/05/23 07:16:05;;;;;;;2.97;2.17;;;15.20;86.80;;;;;;4980178;28;20133;-63
2023/05/23 07:18:35;;;;;;;5.07;2.95;;;15.30;86.70;;;;;;4984392;28;20137;-70
2023/05/23 07:21:04;;;;;;;5.65;1.80;;;15.30;86.90;;;;;;4982072;28;20059;-65
2023/05/23 07:23:33;;;;;;;2.47;1.52;;;15.30;86.40;;;;;;4981669;28;20078;-65
2023/05/23 07:26:01;;;;;;;2.28;1.17;;;15.20;86.00;;;;;;4980133;28;20074;-65
2023/05/23 07:28:41;;;;;;;3.90;1.90;;;15.20;84.80;;;;;;4982783;28;20112;-70
2023/05/23 07:31:08;;;;;;;1.83;1.52;;;15.10;86.40;;;;;;4983537;28;20042;-61
2023/05/23 07:33:36;;;;;;;2.00;1.83;;;15.20;87.60;;;;;;4981191;28;20050;-62
2023/05/23 07:36:04;;;;;;;3.25;2.90;;;15.10;87.90;;;;;;4982524;28;20053;-64
2023/05/23 07:38:32;;;;;;;4.30;2.20;;;15.10;87.10;;;;;;5003269;28;20058;-66
2023/05/23 07:40:59;;;;;;;3.33;1.73;;;15.10;88.50;;;;;;4982277;28;20065;-68
2023/05/23 07:43:37;;;;;;;2.97;2.53;;;15.10;87.30;;;;;;4982133;28;20058;-64
2023/05/23 07:46:05;;;;;;;5.32;2.22;;;15.10;87.00;;;;;;4976726;28;20205;-61
2023/05/23 07:48:32;;;;;;;3.95;2.10;;;15.20;84.70;;;;;;4985026;28;20076;-62
2023/05/23 07:50:59;;;;;;;2.78;1.92;;;15.30;85.70;;;;;;4983311;28;20911;-74
2023/05/23 07:53:27;;;;;;;1.95;1.58;;;15.30;85.20;;;;;;4982403;28;20481;-64
2023/05/23 07:55:55;;;;;;;2.58;1.92;;;15.30;84.70;;;;;;4981469;28;20042;-70
2023/05/23 07:58:25;;;;;;;3.63;2.28;;;15.40;84.70;;;;;;4983078;28;20453;-65
2023/05/23 08:00:52;;;;;;;1.95;1.30;;;15.50;83.90;;;;;;4994243;28;20062;-60
2023/05/23 08:03:45;;;;;;;3.40;2.00;;;15.60;83.40;;;;;;5001843;28;20499;-64
2023/05/23 08:06:19;;;;;;;3.25;1.77;;;15.70;83.30;;;;;;4986745;28;20123;-64
2023/05/23 08:08:46;;;;;;;4.03;1.88;;;15.90;82.60;;;;;;4985746;28;20086;-66
2023/05/23 08:11:14;;;;;;;6.07;1.55;;;16.00;82.80;;;;;;4983838;28;20077;-69
2023/05/23 08:13:45;;;;;;;4.15;2.05;;;16.10;81.00;;;;;;4983394;28;20054;-68
2023/05/23 08:16:30;;;;;;;6.63;2.17;;;16.30;81.00;;;;;;5004047;28;20528;-66
2023/05/23 08:18:58;;;;;;;5.00;1.75;;;16.50;80.30;;;;;;4986476;28;20899;-75
2023/05/23 08:21:27;;;;;;;4.55;1.92;;;16.60;80.10;;;;;;4999254;28;20045;-68
2023/05/23 08:23:53;;;;;;;5.53;2.20;;;16.70;79.60;;;;;;4985984;28;20108;-69
2023/05/23 08:26:21;;;;;;;1.95;1.42;;;16.80;78.40;;;;;;5002042;28;20076;-64
2023/05/23 08:28:50;;;;;;;2.58;1.92;;;16.90;78.20;;;;;;4984662;28;20129;-61
2023/05/23 08:31:17;;;;;;;3.50;1.83;;;17.10;79.80;;;;;;4985184;28;20183;-61
2023/05/23 08:33:44;;;;;;;2.85;1.95;;;17.20;78.50;;;;;;4983571;28;20081;-72
2023/05/23 08:36:12;;;;;;;3.90;2.25;;;17.20;79.60;;;;;;4982574;28;20046;-64
2023/05/23 08:38:40;;;;;;;3.72;2.13;;;17.30;79.60;;;;;;4986086;28;20053;-66
2023/05/23 08:41:23;;;;;;;4.00;2.25;;;17.50;80.80;;;;;;4983707;28;20072;-64
2023/05/23 08:43:57;;;;;;;3.70;2.10;;;17.70;80.40;;;;;;4999453;28;20132;-72
2023/05/23 08:46:30;;;;;;;3.08;2.20;;;17.90;80.70;;;;;;4985855;28;20054;-64
2023/05/23 08:48:59;;;;;;;2.83;2.10;;;18.30;76.70;;;;;;5004032;28;20072;-75
2023/05/23 08:51:28;;;;;;;2.53;1.95;;;18.60;75.30;;;;;;5001895;28;20053;-71
2023/05/23 08:53:59;;;;;;;2.63;2.17;;;19.10;72.40;;;;;;4982055;28;20053;-68
2023/05/23 08:56:28;;;;;;;4.15;2.90;;;19.30;70.90;;;;;;4985685;28;20066;-63
2023/05/23 08:58:57;;;;;;;4.07;1.70;;;19.50;73.20;;;;;;4984922;28;20054;-66
2023/05/23 09:01:26;;;;;;;2.33;1.98;;;19.60;74.00;;;;;;4973854;28;20124;-68
2023/05/23 09:03:59;;;;;;;4.22;2.42;;;19.70;75.20;;;;;;4983712;28;20120;-65
2023/05/23 09:06:35;;;;;;;2.25;2.05;;;19.90;76.80;;;;;;4985020;28;20069;-67
2023/05/23 09:09:03;;;;;;;3.92;2.00;;;20.00;78.60;;;;;;4985026;28;20161;-66
2023/05/23 09:11:32;;;;;;;8.32;2.33;;;20.10;77.10;;;;;;4984221;28;20060;-65
2023/05/23 09:14:03;;;;;;;2.20;2.00;;;20.20;78.80;;;;;;4996650;28;20049;-64
2023/05/23 09:16:35;;;;;;;6.50;2.17;;;20.50;80.80;;;;;;4984554;28;20157;-64
2023/05/23 09:19:13;;;;;;;2.40;2.03;;;20.60;80.20;;;;;;4985211;28;20508;-64
2023/05/23 09:21:45;;;;;;;4.65;2.08;;;20.70;79.20;;;;;;4984141;28;20068;-68
2023/05/23 09:24:33;;;;;;;5.38;2.72;;;20.70;78.70;;;;;;4985696;28;20535;-67
2023/05/23 09:27:02;;;;;;;3.83;2.10;;;20.70;78.80;;;;;;4985696;28;20056;-64
2023/05/23 09:29:29;;;;;;;2.40;1.75;;;20.70;79.00;;;;;;4984726;28;20058;-69
2023/05/23 09:32:13;;;;;;;2.78;2.35;;;20.80;79.90;;;;;;4996807;28;20062;-66
2023/05/23 09:34:53;;;;;;;4.93;2.35;;;21.00;79.10;;;;;;4996395;28;20038;-62
2023/05/23 09:37:30;;;;;;;5.05;1.95;;;21.10;78.40;;;;;;4997604;28;20054;-64
2023/05/23 09:39:58;;;;;;;4.38;2.10;;;21.30;77.90;;;;;;4999186;28;20466;-70
2023/05/23 09:42:31;;;;;;;2.42;1.95;;;21.40;78.50;;;;;;5001692;28;20092;-68
2023/05/23 09:44:59;;;;;;;3.67;2.45;;;21.50;78.30;;;;;;5004674;28;20053;-73
2023/05/23 09:47:29;;;;;;;4.45;2.47;;;21.60;78.40;;;;;;4986060;28;20843;-62
2023/05/23 09:49:57;;;;;;;21.60;4.05;;;21.70;78.40;;;;;;5001653;28;20664;-70
2023/05/23 09:52:24;;;;;;;5.07;2.55;;;21.80;79.00;;;;;;5002636;28;20073;-64
2023/05/23 09:54:52;;;;;;;3.78;2.42;;;21.90;77.50;;;;;;4984706;28;20109;-70
2023/05/23 09:57:22;;;;;;;3.78;2.05;;;22.00;78.40;;;;;;5001289;28;20054;-70
2023/05/23 09:59:55;;;;;;;5.63;2.88;;;22.00;77.30;;;;;;5001302;28;20380;-62
2023/05/23 10:02:53;;;;;;;2.72;2.40;;;22.10;77.60;;;;;;5002505;28;20135;-67
2023/05/23 10:05:32;;;;;;;4.25;2.40;;;22.10;77.80;;;;;;4999100;28;20051;-66
2023/05/23 10:08:02;;;;;;;4.20;2.67;;;22.20;78.30;;;;;;5000740;28;20132;-66
2023/05/23 10:10:31;;;;;;;3.65;2.08;;;22.30;78.00;;;;;;5001987;28;20532;-73
2023/05/23 10:13:04;;;;;;;4.30;3.30;;;22.40;78.40;;;;;;5003285;28;20053;-73
2023/05/23 10:15:38;;;;;;;4.72;2.25;;;22.50;79.60;;;;;;5000105;28;20105;-63
2023/05/23 10:18:11;;;;;;;4.28;2.35;;;22.70;78.60;;;;;;5002380;28;20220;-62
2023/05/23 10:20:41;;;;;;;3.53;2.15;;;22.70;77.80;;;;;;5004600;28;20060;-63
2023/05/23 10:23:09;;;;;;;;;;;22.70;77.10;;;;;;5003606;28;20050;-63
2023/05/23 10:25:36;;;;;;;6.00;2.53;;;22.60;77.70;;;;;;5002456;28;20052;-64
2023/05/23 10:28:04;;;;;;;3.33;2.13;;;22.70;77.60;;;;;;4998643;28;20054;-65
2023/05/23 10:30:32;;;;;;;2.40;2.20;;;22.70;78.20;;;;;;5003085;28;20108;-73
2023/05/23 10:33:00;;;;;;;3.20;2.67;;;22.80;77.80;;;;;;5001773;28;20045;-71
2023/05/23 10:36:03;;;;;;;6.45;2.35;;;22.80;76.70;;;;;;5000966;28;20053;-66
2023/05/23 10:38:38;;;;;;;2.30;1.83;;;23.00;76.10;;;;;;5001869;28;20122;-62
2023/05/23 10:41:10;;;;;;;2.60;2.20;;;22.90;76.80;;;;;;5000729;28;20062;-64
2023/05/23 10:43:50;;;;;;;4.38;2.30;;;23.00;77.60;;;;;;5002287;28;20077;-65
2023/05/23 10:46:20;;;;;;;4.20;2.58;;;23.20;77.20;;;;;;5002289;28;20056;-65
2023/05/23 10:48:56;;;;;;;4.35;2.65;;;23.20;76.70;;;;;;5007401;28;20060;-65
2023/05/23 10:51:23;;;;;;;3.10;1.98;;;23.30;75.60;;;;;;5003612;28;20069;-65
2023/05/23 10:53:53;;;;;;;3.97;1.60;;;23.40;76.00;;;;;;5003430;28;20050;-63
2023/05/23 10:56:22;;;;;;;4.00;2.33;;;23.60;75.80;;;;;;5003207;28;20053;-70
2023/05/23 10:58:53;;;;;;;2.85;2.47;;;23.70;75.70;;;;;;5002183;28;20050;-71
2023/05/23 11:01:21;;;;;;;5.88;2.17;;;23.80;75.10;;;;;;5002590;28;20104;-62
2023/05/23 11:03:52;;;;;;;5.10;2.78;;;23.80;74.80;;;;;;5000387;28;20046;-66
2023/05/23 11:06:43;;;;;;;3.20;2.17;;;23.70;72.10;;;;;;5005348;28;20140;-62
2023/05/23 11:09:11;;;;;;;2.17;1.88;;;23.40;72.00;;;;;;5004370;28;20050;-66
2023/05/23 11:12:08;;;;;;;5.20;2.65;;;23.60;74.70;;;;;;5002748;28;20137;-70
2023/05/23 11:14:36;;;;;;;4.00;2.22;;;23.70;73.60;;;;;;5004436;28;20089;-72
2023/05/23 11:17:12;;;;;;;2.58;2.03;;;24.00;74.30;;;;;;5002413;28;20140;-64
2023/05/23 11:19:53;;;;;;;2.20;2.00;;;24.10;73.80;;;;;;5003646;28;20062;-62
2023/05/23 11:22:26;;;;;;;2.20;1.83;;;24.10;73.60;;;;;;5005093;28;20049;-65
2023/05/23 11:24:54;;;;;;;4.35;2.08;;;24.00;72.60;;;;;;5004126;28;20217;-69
2023/05/23 11:27:38;;;;;;;4.68;2.58;;;24.20;74.10;;;;;;5003887;28;20153;-67
2023/05/23 11:30:18;;;;;;;6.35;3.13;;;24.20;73.10;;;;;;5002725;28;20053;-66
2023/05/23 11:32:53;;;;;;;2.07;1.70;;;24.40;74.70;;;;;;5000601;28;20475;-61
2023/05/23 11:35:21;;;;;;;3.33;2.20;;;24.60;74.40;;;;;;5002201;28;20054;-61
2023/05/23 11:37:48;;;;;;;4.32;1.80;;;24.70;73.40;;;;;;5001318;28;20085;-67
2023/05/23 11:40:38;;;;;;;2.28;1.58;;;24.70;73.70;;;;;;5003747;28;20054;-63
2023/05/23 11:43:10;;;;;;;3.60;2.97;;;24.80;70.10;;;;;;5000733;28;20077;-65
2023/05/23 11:45:37;;;;;;;1.95;1.58;;;24.40;67.30;;;;;;5004991;28;20053;-68
2023/05/23 11:48:10;;;;;;;2.03;1.73;;;24.10;67.30;;;;;;5003622;28;20381;-64
2023/05/23 11:50:46;;;;;;;2.63;2.42;;;24.00;69.20;;;;;;5004634;28;20129;-62
2023/05/23 11:53:16;;;;;;;2.30;2.10;;;23.80;70.70;;;;;;5005051;28;20053;-61
2023/05/23 11:55:57;;;;;;;2.75;1.70;;;23.70;70.00;;;;;;4999806;28;20066;-62
2023/05/23 11:58:35;;;;;;;3.80;2.67;;;23.70;71.00;;;;;;4998986;28;20160;-61
2023/05/23 12:01:05;;;;;;;3.50;1.92;;;23.80;69.70;;;;;;5003654;28;20092;-66
2023/05/23 12:03:34;;;;;;;2.38;2.15;;;23.80;70.10;;;;;;5004962;28;20685;-63
2023/05/23 12:06:01;;;;;;;3.05;1.80;;;24.00;68.60;;;;;;5002447;28;20060;-67
2023/05/23 12:08:28;;;;;;;3.08;2.67;;;24.10;71.20;;;;;;5003330;28;20123;-76
2023/05/23 12:11:00;;;;;;;4.78;2.08;;;24.10;71.50;;;;;;5003134;28;20152;-62
2023/05/23 12:13:30;;;;;;;4.90;2.42;;;24.20;71.20;;;;;;5002389;28;20057;-68
2023/05/23 12:16:00;;;;;;;;;;;24.20;73.60;;;;;;5002897;28;20145;-65
2023/05/23 12:18:30;;;;;;;3.13;2.72;;;24.40;73.50;;;;;;5001547;28;20302;-63
2023/05/23 12:21:02;;;;;;;3.17;1.80;;;24.60;72.50;;;;;;5004744;28;20088;-67
2023/05/23 12:23:29;;;;;;;1.98;1.67;;;24.80;74.10;;;;;;5003204;28;20068;-65
2023/05/23 12:26:03;;;;;;;2.40;2.20;;;24.60;74.40;;;;;;4982994;28;20042;-64
2023/05/23 12:28:38;;;;;;;2.88;1.73;;;24.50;71.10;;;;;;5003244;28;20049;-71
2023/05/23 12:31:26;;;;;;;3.35;2.33;;;24.60;73.40;;;;;;4985110;28;20752;-64
2023/05/23 12:33:53;;;;;;;3.25;2.40;;;24.60;73.20;;;;;;5002258;28;20062;-64
2023/05/23 12:36:31;;;;;;;3.90;2.17;;;24.40;72.30;;;;;;5004056;28;20049;-64
2023/05/23 12:39:04;;;;;;;4.28;2.95;;;23.80;73.00;;;;;;5003526;28;20057;-62
2023/05/23 12:41:32;;;;;;;3.75;2.42;;;23.40;72.60;;;;;;5001631;28;20046;-65
2023/05/23 12:43:59;;;;;;;2.72;2.10;;;23.30;73.20;;;;;;5001925;28;20547;-69
2023/05/23 12:46:26;;;;;;;3.45;1.92;;;23.10;73.00;;;;;;5003865;28;20108;-64
2023/05/23 12:48:54;;;;;;;3.38;2.35;;;23.20;75.60;;;;;;5000525;28;20053;-64
2023/05/23 12:51:21;;;;;;;5.07;2.38;;;22.90;73.80;;;;;;5006831;28;20147;-73
2023/05/23 12:53:48;;;;;;;3.85;2.20;;;22.70;75.20;;;;;;5002484;28;20057;-71
2023/05/23 12:56:15;;;;;;;2.75;2.53;;;22.50;76.30;;;;;;5002109;28;20547;-62
2023/05/23 12:58:42;;;;;;;3.08;2.28;;;22.10;77.20;;;;;;5002922;28;20515;-66
2023/05/23 13:01:10;;;;;;;4.90;2.58;;;21.90;76.90;;;;;;4986842;28;20416;-62
2023/05/23 13:03:37;;;;;;;5.35;2.53;;;21.70;76.80;;;;;;5004903;28;20058;-68
2023/05/23 13:06:05;;;;;;;6.28;3.22;;;21.40;79.00;;;;;;5002380;28;20053;-69